Time;durP1;ratioP1;P1;durP2;ratioP2;P2;SDS_P1;SDS_P2;PMS_P1;PMS_P2;Temp;Humidity;BMP_temperature;BMP_pressure;BME280_temperature;BME280_humidity;BME280_pressure;Samples;Min_cycle;Max_cycle;Signal;HPM_P1;HPM_P2
2022/03/29 00:01:22;;;;;;;;;;;21.40;29.80;;;;;;484357;242;1646;-38
2022/03/29 00:03:24;;;;;;;;;;;21.40;29.80;;;;;;484299;246;1061;-38
2022/03/29 00:05:25;;;;;;;;;;;21.40;29.80;;;;;;484272;246;1131;-38
2022/03/29 00:07:26;;;;;;;;;;;21.40;29.70;;;;;;484227;246;1081;-38
2022/03/29 00:09:28;;;;;;;;;;;21.40;29.70;;;;;;484301;246;1200;-38
2022/03/29 00:11:29;;;;;;;;;;;21.40;29.80;;;;;;484237;246;1353;-38
2022/03/29 00:13:30;;;;;;;;;;;21.40;29.80;;;;;;484281;246;1071;-38
2022/03/29 00:15:32;;;;;;;;;;;21.50;29.80;;;;;;484308;246;2184;-38
2022/03/29 00:17:33;;;;;;;;;;;21.50;29.80;;;;;;484713;246;1140;-38
2022/03/29 00:19:34;;;;;;;;;;;21.50;29.80;;;;;;484281;246;1177;-38
2022/03/29 00:21:36;;;;;;;;;;;21.40;29.80;;;;;;484455;246;1178;-38
2022/03/29 00:23:37;;;;;;;;;;;21.40;29.80;;;;;;484584;246;1181;-38
2022/03/29 00:25:38;;;;;;;;;;;21.50;29.80;;;;;;484724;246;1028;-38
2022/03/29 00:27:40;;;;;;;;;;;21.40;29.80;;;;;;484210;246;1148;-38
2022/03/29 00:29:41;;;;;;;;;;;21.50;29.80;;;;;;484755;246;1171;-38
2022/03/29 00:31:42;;;;;;;;;;;21.40;29.80;;;;;;484510;246;1164;-38
2022/03/29 00:33:43;;;;;;;;;;;21.50;29.80;;;;;;484729;246;1140;-38
2022/03/29 00:35:45;;;;;;;;;;;21.40;29.80;;;;;;484249;246;2184;-38
2022/03/29 00:37:47;;;;;;;;;;;21.40;29.80;;;;;;484657;246;1190;-38
2022/03/29 00:39:47;;;;;;;;;;;21.40;29.90;;;;;;484237;246;2302;-38
2022/03/29 00:41:49;;;;;;;;;;;21.40;29.80;;;;;;484204;246;1538;-38
2022/03/29 00:43:50;;;;;;;;;;;21.40;29.90;;;;;;484304;246;1078;-38
2022/03/29 00:45:51;;;;;;;;;;;21.40;29.90;;;;;;484472;246;1046;-38
2022/03/29 00:47:53;;;;;;;;;;;21.40;29.90;;;;;;484259;246;1226;-38
2022/03/29 00:49:54;;;;;;;;;;;21.40;29.90;;;;;;484706;246;1229;-38
2022/03/29 00:51:58;;;;;;;;;;;21.40;29.80;;;;;;484656;246;1367;-38
2022/03/29 00:53:57;;;;;;;;;;;21.40;29.80;;;;;;484259;246;2152;-38
2022/03/29 00:55:59;;;;;;;;;;;21.50;29.80;;;;;;484335;246;2172;-38
2022/03/29 00:58:01;;;;;;;;;;;21.40;29.80;;;;;;484339;246;2222;-38
2022/03/29 01:00:03;;;;;;;;;;;21.40;29.80;;;;;;484251;246;1370;-38
2022/03/29 01:02:03;;;;;;;;;;;21.40;29.80;;;;;;484535;246;2250;-38
2022/03/29 01:04:04;;;;;;;;;;;21.40;29.90;;;;;;484365;246;1040;-38
2022/03/29 01:06:06;;;;;;;;;;;21.40;29.90;;;;;;484710;246;1306;-38
2022/03/29 01:08:07;;;;;;;;;;;21.40;29.90;;;;;;484697;246;1058;-38
2022/03/29 01:10:08;;;;;;;;;;;21.50;29.80;;;;;;484291;246;1141;-38
2022/03/29 01:12:10;;;;;;;;;;;21.40;29.90;;;;;;484246;246;1256;-38
2022/03/29 01:14:11;;;;;;;;;;;21.40;29.90;;;;;;484755;246;1067;-38
2022/03/29 01:18:32;;;;;;;;;;;21.40;29.80;;;;;;484707;246;1075;-38
2022/03/29 01:20:33;;;;;;;;;;;21.40;29.80;;;;;;484713;246;1101;-38
2022/03/29 01:22:34;;;;;;;;;;;21.50;29.80;;;;;;484720;246;1056;-38
2022/03/29 01:24:36;;;;;;;;;;;21.40;29.80;;;;;;484536;246;1173;-38
2022/03/29 01:26:37;;;;;;;;;;;21.50;29.80;;;;;;484698;246;1218;-38
2022/03/29 01:28:38;;;;;;;;;;;21.50;29.80;;;;;;484754;246;1041;-38
2022/03/29 01:30:39;;;;;;;;;;;21.40;29.80;;;;;;484705;246;1244;-38
2022/03/29 01:32:41;;;;;;;;;;;21.40;29.80;;;;;;484707;246;1107;-38
2022/03/29 01:34:42;;;;;;;;;;;21.40;29.90;;;;;;484334;246;2144;-38
2022/03/29 01:36:43;;;;;;;;;;;21.40;29.90;;;;;;484620;246;1335;-38
2022/03/29 01:38:45;;;;;;;;;;;21.40;29.90;;;;;;484715;246;1117;-38
2022/03/29 01:40:46;;;;;;;;;;;21.40;29.80;;;;;;484302;246;1061;-38
2022/03/29 01:42:47;;;;;;;;;;;21.50;29.90;;;;;;484326;246;966;-38
2022/03/29 01:44:49;;;;;;;;;;;21.40;29.90;;;;;;484589;246;1049;-38
2022/03/29 01:46:50;;;;;;;;;;;21.40;29.90;;;;;;484283;246;1060;-38
2022/03/29 01:48:51;;;;;;;;;;;21.40;29.90;;;;;;484733;246;1140;-38
2022/03/29 01:50:53;;;;;;;;;;;21.40;29.90;;;;;;484724;246;1234;-38
2022/03/29 01:52:54;;;;;;;;;;;21.40;29.90;;;;;;484441;246;1064;-38
2022/03/29 01:54:56;;;;;;;;;;;21.40;29.90;;;;;;484331;246;2161;-38
2022/03/29 01:56:57;;;;;;;;;;;21.40;29.90;;;;;;484693;246;1189;-38
2022/03/29 01:58:58;;;;;;;;;;;21.40;29.80;;;;;;484701;246;1211;-38
2022/03/29 02:00:59;;;;;;;;;;;21.50;29.90;;;;;;484208;246;1508;-38
2022/03/29 02:03:00;;;;;;;;;;;21.40;29.90;;;;;;484669;246;1151;-38
2022/03/29 02:05:02;;;;;;;;;;;21.40;29.90;;;;;;484679;246;1084;-38
2022/03/29 02:07:03;;;;;;;;;;;21.50;29.90;;;;;;484289;246;1264;-38
2022/03/29 02:09:06;;;;;;;;;;;21.40;29.90;;;;;;484236;246;1232;-38
2022/03/29 02:11:06;;;;;;;;;;;21.40;29.90;;;;;;484421;246;2264;-38
2022/03/29 02:13:09;;;;;;;;;;;21.40;29.90;;;;;;484701;246;1061;-38
2022/03/29 02:15:09;;;;;;;;;;;21.40;29.90;;;;;;484650;246;2190;-38
2022/03/29 02:17:11;;;;;;;;;;;21.40;29.90;;;;;;484207;246;1245;-38
2022/03/29 02:19:12;;;;;;;;;;;21.40;29.90;;;;;;484670;246;1055;-38
2022/03/29 02:21:13;;;;;;;;;;;21.40;29.90;;;;;;484680;246;1220;-38
2022/03/29 02:23:15;;;;;;;;;;;21.40;29.90;;;;;;484726;246;1032;-38
2022/03/29 02:25:16;;;;;;;;;;;21.40;29.90;;;;;;484255;246;2177;-38
2022/03/29 02:27:17;;;;;;;;;;;21.40;29.90;;;;;;484236;246;1266;-38
2022/03/29 02:29:19;;;;;;;;;;;21.40;29.90;;;;;;484719;246;1097;-38
2022/03/29 02:31:20;;;;;;;;;;;21.40;29.90;;;;;;484274;246;1359;-38
2022/03/29 02:33:21;;;;;;;;;;;21.40;29.90;;;;;;484323;246;1041;-38
2022/03/29 02:35:23;;;;;;;;;;;21.40;30.00;;;;;;484304;246;2137;-38
2022/03/29 02:37:24;;;;;;;;;;;21.40;30.00;;;;;;484327;246;1257;-38
2022/03/29 02:39:25;;;;;;;;;;;21.40;30.00;;;;;;484696;246;1269;-38
2022/03/29 02:41:27;;;;;;;;;;;21.30;30.00;;;;;;484425;246;1325;-38
2022/03/29 02:43:28;;;;;;;;;;;21.40;30.00;;;;;;484762;246;1077;-38
2022/03/29 02:45:29;;;;;;;;;;;21.40;30.00;;;;;;484732;246;1164;-38
2022/03/29 02:47:30;;;;;;;;;;;21.40;29.90;;;;;;484411;246;1159;-38
2022/03/29 02:49:32;;;;;;;;;;;21.40;29.90;;;;;;484273;246;1099;-39
2022/03/29 02:51:33;;;;;;;;;;;21.40;29.90;;;;;;484656;246;1210;-38
2022/03/29 02:53:34;;;;;;;;;;;21.40;29.90;;;;;;484278;246;983;-38
2022/03/29 02:55:36;;;;;;;;;;;21.40;29.90;;;;;;484452;246;2149;-38
2022/03/29 02:57:37;;;;;;;;;;;21.40;29.90;;;;;;484669;246;1202;-38
2022/03/29 02:59:39;;;;;;;;;;;21.40;30.00;;;;;;484716;246;1119;-38
2022/03/29 03:01:40;;;;;;;;;;;21.40;29.90;;;;;;484442;245;1403;-38
2022/03/29 03:03:41;;;;;;;;;;;21.40;30.00;;;;;;484655;246;1141;-38
2022/03/29 03:05:43;;;;;;;;;;;21.40;30.00;;;;;;484619;246;1120;-38
2022/03/29 03:07:44;;;;;;;;;;;21.40;29.90;;;;;;484348;246;1636;-38
2022/03/29 03:09:45;;;;;;;;;;;21.40;29.90;;;;;;484242;246;1171;-38
2022/03/29 03:11:46;;;;;;;;;;;21.40;30.00;;;;;;484129;246;1361;-38
2022/03/29 03:13:48;;;;;;;;;;;21.40;30.00;;;;;;484265;246;1057;-38
2022/03/29 03:15:49;;;;;;;;;;;21.40;30.00;;;;;;484718;246;2133;-38
2022/03/29 03:17:50;;;;;;;;;;;21.40;29.90;;;;;;484377;246;1244;-38
2022/03/29 03:19:51;;;;;;;;;;;21.40;30.00;;;;;;484728;246;1093;-38
2022/03/29 03:21:53;;;;;;;;;;;21.40;30.00;;;;;;484493;246;1132;-38
2022/03/29 03:23:54;;;;;;;;;;;21.40;30.00;;;;;;484698;246;1025;-38
2022/03/29 03:25:55;;;;;;;;;;;21.40;30.00;;;;;;484392;246;1178;-38
2022/03/29 03:27:57;;;;;;;;;;;21.40;30.00;;;;;;484590;246;1167;-38
2022/03/29 03:29:58;;;;;;;;;;;21.40;30.00;;;;;;484271;246;1108;-38
2022/03/29 03:31:59;;;;;;;;;;;21.40;30.00;;;;;;484283;246;1216;-38
2022/03/29 03:34:01;;;;;;;;;;;21.40;30.00;;;;;;484228;246;1050;-38
2022/03/29 03:36:02;;;;;;;;;;;21.40;30.00;;;;;;484175;246;2213;-38
2022/03/29 03:38:04;;;;;;;;;;;21.40;30.00;;;;;;484576;246;1108;-38
2022/03/29 03:40:05;;;;;;;;;;;21.40;30.00;;;;;;484672;246;1263;-39
2022/03/29 03:42:06;;;;;;;;;;;21.40;30.00;;;;;;484347;246;1203;-38
2022/03/29 03:44:09;;;;;;;;;;;21.40;30.00;;;;;;484570;246;1053;-38
2022/03/29 03:46:09;;;;;;;;;;;21.40;30.00;;;;;;484611;246;2451;-38
2022/03/29 03:48:10;;;;;;;;;;;21.40;30.00;;;;;;484668;246;1080;-38
2022/03/29 03:50:11;;;;;;;;;;;21.40;29.90;;;;;;484634;246;1253;-38
2022/03/29 03:52:13;;;;;;;;;;;21.40;29.90;;;;;;484212;246;1339;-38
2022/03/29 03:54:14;;;;;;;;;;;21.50;29.90;;;;;;484554;246;1096;-38
2022/03/29 03:56:15;;;;;;;;;;;21.40;29.90;;;;;;484433;246;2203;-38
2022/03/29 03:58:17;;;;;;;;;;;21.40;29.90;;;;;;484305;246;1078;-38
2022/03/29 04:00:21;;;;;;;;;;;21.40;29.90;;;;;;484232;246;1051;-38
2022/03/29 04:02:19;;;;;;;;;;;21.40;29.90;;;;;;484175;246;1799;-38
2022/03/29 04:04:21;;;;;;;;;;;21.40;29.90;;;;;;484229;246;957;-38
2022/03/29 04:06:22;;;;;;;;;;;21.40;30.00;;;;;;484184;246;1389;-38
2022/03/29 04:08:23;;;;;;;;;;;21.40;30.00;;;;;;484215;246;1067;-38
2022/03/29 04:10:26;;;;;;;;;;;21.40;30.00;;;;;;484199;246;1205;-38
2022/03/29 04:12:27;;;;;;;;;;;21.40;30.00;;;;;;484557;246;2816;-38
2022/03/29 04:14:27;;;;;;;;;;;21.40;30.00;;;;;;484077;246;1853;-38
2022/03/29 04:16:29;;;;;;;;;;;21.40;30.00;;;;;;484322;246;2191;-38
2022/03/29 04:18:30;;;;;;;;;;;21.40;30.00;;;;;;484201;246;1043;-38
2022/03/29 04:20:31;;;;;;;;;;;21.40;30.00;;;;;;484553;246;1128;-38
2022/03/29 04:22:33;;;;;;;;;;;21.40;30.00;;;;;;484147;246;1224;-38
2022/03/29 04:24:34;;;;;;;;;;;21.40;30.00;;;;;;484620;246;1095;-38
2022/03/29 04:26:36;;;;;;;;;;;21.40;30.00;;;;;;484147;246;1278;-38
2022/03/29 04:28:39;;;;;;;;;;;21.40;30.00;;;;;;484380;246;1002;-38
2022/03/29 04:30:40;;;;;;;;;;;21.40;30.00;;;;;;484397;246;1275;-38
2022/03/29 04:32:41;;;;;;;;;;;21.40;30.00;;;;;;484278;246;1089;-38
2022/03/29 04:34:44;;;;;;;;;;;21.40;30.00;;;;;;484131;246;1157;-38
2022/03/29 04:36:44;;;;;;;;;;;21.40;30.00;;;;;;484065;246;2191;-38
2022/03/29 04:38:46;;;;;;;;;;;21.40;30.00;;;;;;484636;246;1021;-38
2022/03/29 04:40:47;;;;;;;;;;;21.40;30.00;;;;;;484521;246;1256;-38
2022/03/29 04:42:48;;;;;;;;;;;21.40;30.00;;;;;;484310;246;1137;-38
2022/03/29 04:44:50;;;;;;;;;;;21.40;30.00;;;;;;484147;246;1070;-38
2022/03/29 04:46:51;;;;;;;;;;;21.40;30.00;;;;;;484024;241;1147;-38
2022/03/29 04:48:52;;;;;;;;;;;21.40;30.00;;;;;;484193;246;1067;-38
2022/03/29 04:50:54;;;;;;;;;;;21.40;30.00;;;;;;483925;246;1466;-38
2022/03/29 04:52:55;;;;;;;;;;;21.40;30.00;;;;;;483906;246;1066;-38
2022/03/29 04:54:56;;;;;;;;;;;21.50;30.00;;;;;;483923;246;1052;-38
2022/03/29 04:57:00;;;;;;;;;;;21.40;30.00;;;;;;484077;245;2199;-38
2022/03/29 04:58:59;;;;;;;;;;;21.40;30.00;;;;;;483992;246;2143;-38
2022/03/29 05:01:00;;;;;;;;;;;21.40;30.00;;;;;;484344;246;1048;-38
2022/03/29 05:03:02;;;;;;;;;;;21.40;30.00;;;;;;484288;246;1073;-38
2022/03/29 05:05:03;;;;;;;;;;;21.40;30.00;;;;;;484006;246;1198;-38
2022/03/29 05:07:05;;;;;;;;;;;21.40;30.00;;;;;;484044;241;1598;-38
2022/03/29 05:09:06;;;;;;;;;;;21.40;30.00;;;;;;483970;246;1114;-38
2022/03/29 05:11:07;;;;;;;;;;;21.50;30.00;;;;;;483999;246;1136;-38
2022/03/29 05:13:09;;;;;;;;;;;21.50;30.00;;;;;;483956;246;1188;-38
2022/03/29 05:15:10;;;;;;;;;;;21.50;30.00;;;;;;483898;246;1398;-38
2022/03/29 05:17:11;;;;;;;;;;;21.50;30.00;;;;;;483860;246;2121;-38
2022/03/29 05:19:13;;;;;;;;;;;21.50;30.00;;;;;;483902;246;1063;-38
2022/03/29 05:21:14;;;;;;;;;;;21.40;30.00;;;;;;484067;246;1393;-38
2022/03/29 05:23:16;;;;;;;;;;;21.40;30.00;;;;;;483868;246;1236;-38
2022/03/29 05:25:17;;;;;;;;;;;21.40;30.00;;;;;;484306;246;1113;-38
2022/03/29 05:27:18;;;;;;;;;;;21.40;30.00;;;;;;483823;246;1256;-38
2022/03/29 05:29:20;;;;;;;;;;;21.40;30.00;;;;;;484044;246;1062;-38
2022/03/29 05:31:21;;;;;;;;;;;21.50;30.00;;;;;;483773;246;1553;-38
2022/03/29 05:33:22;;;;;;;;;;;21.40;30.00;;;;;;484307;246;1100;-38
2022/03/29 05:35:25;;;;;;;;;;;21.50;30.00;;;;;;484045;246;1191;-38
2022/03/29 05:37:25;;;;;;;;;;;21.40;30.00;;;;;;484110;246;2181;-38
2022/03/29 05:39:27;;;;;;;;;;;21.50;30.00;;;;;;484009;246;1027;-39
2022/03/29 05:41:28;;;;;;;;;;;21.50;30.00;;;;;;483940;246;1207;-38
2022/03/29 05:43:30;;;;;;;;;;;21.50;30.00;;;;;;484026;246;1060;-38
2022/03/29 05:45:31;;;;;;;;;;;21.50;30.00;;;;;;484272;246;1051;-38
2022/03/29 05:49:51;;;;;;;;;;;21.40;30.00;;;;;;483891;246;1208;-38
2022/03/29 05:51:53;;;;;;;;;;;21.40;30.00;;;;;;483945;246;1340;-38
2022/03/29 05:53:54;;;;;;;;;;;21.40;30.00;;;;;;483803;246;1068;-39
2022/03/29 05:55:55;;;;;;;;;;;21.50;30.00;;;;;;483784;246;1074;-38
2022/03/29 05:57:56;;;;;;;;;;;21.40;30.00;;;;;;483872;246;2496;-38
2022/03/29 05:59:58;;;;;;;;;;;21.40;30.00;;;;;;483829;246;1224;-38
2022/03/29 06:02:04;;;;;;;;;;;21.40;30.00;;;;;;483808;246;1213;-38
2022/03/29 06:04:01;;;;;;;;;;;21.40;30.00;;;;;;483511;246;1590;-38
2022/03/29 06:06:02;;;;;;;;;;;21.50;30.00;;;;;;484172;246;1599;-38
2022/03/29 06:08:03;;;;;;;;;;;21.50;30.00;;;;;;483795;246;1224;-38
2022/03/29 06:10:05;;;;;;;;;;;21.50;30.00;;;;;;483789;246;1049;-38
2022/03/29 06:12:06;;;;;;;;;;;21.50;30.00;;;;;;483711;246;2364;-38
2022/03/29 06:14:07;;;;;;;;;;;21.40;30.00;;;;;;484146;246;1256;-38
2022/03/29 06:16:08;;;;;;;;;;;21.40;30.00;;;;;;484032;241;1139;-38
2022/03/29 06:18:10;;;;;;;;;;;21.50;30.00;;;;;;483879;246;2180;-38
2022/03/29 06:20:11;;;;;;;;;;;21.50;30.00;;;;;;483753;246;1202;-38
2022/03/29 06:22:12;;;;;;;;;;;21.50;29.90;;;;;;483767;246;1493;-38
2022/03/29 06:24:14;;;;;;;;;;;21.50;29.90;;;;;;483726;246;1121;-38
2022/03/29 06:26:15;;;;;;;;;;;21.50;29.90;;;;;;483757;246;1363;-38
2022/03/29 06:28:17;;;;;;;;;;;21.50;29.80;;;;;;483653;246;1098;-38
2022/03/29 06:30:18;;;;;;;;;;;21.40;29.90;;;;;;484099;246;1221;-38
2022/03/29 06:32:19;;;;;;;;;;;21.50;29.90;;;;;;484115;246;1240;-38
2022/03/29 06:34:20;;;;;;;;;;;21.50;29.90;;;;;;483779;246;1069;-38
2022/03/29 06:36:21;;;;;;;;;;;21.50;29.90;;;;;;483712;246;1343;-38
2022/03/29 06:38:23;;;;;;;;;;;21.50;29.90;;;;;;483924;246;2207;-38
2022/03/29 06:40:24;;;;;;;;;;;21.50;29.90;;;;;;484281;246;826;-38
2022/03/29 06:42:25;;;;;;;;;;;21.40;29.90;;;;;;484168;246;1214;-38
2022/03/29 06:44:28;;;;;;;;;;;21.50;30.00;;;;;;484360;246;848;-38
2022/03/29 06:46:28;;;;;;;;;;;21.50;30.00;;;;;;483766;246;2246;-38
2022/03/29 06:48:30;;;;;;;;;;;21.50;29.90;;;;;;484127;246;1043;-38
2022/03/29 06:50:31;;;;;;;;;;;21.50;29.80;;;;;;483484;246;1431;-38
2022/03/29 06:52:32;;;;;;;;;;;21.50;29.80;;;;;;483682;246;1364;-38
2022/03/29 06:54:33;;;;;;;;;;;21.50;29.80;;;;;;483359;246;1054;-38
2022/03/29 06:56:35;;;;;;;;;;;21.50;29.90;;;;;;483447;246;2204;-38
2022/03/29 06:58:36;;;;;;;;;;;21.50;29.90;;;;;;483447;246;1203;-38
2022/03/29 07:00:39;;;;;;;;;;;21.50;29.90;;;;;;483389;246;1132;-38
2022/03/29 07:02:39;;;;;;;;;;;21.50;29.90;;;;;;483283;245;2361;-38
2022/03/29 07:04:40;;;;;;;;;;;21.50;29.90;;;;;;483276;246;1088;-38
2022/03/29 07:06:42;;;;;;;;;;;21.50;29.90;;;;;;483309;246;1115;-38
2022/03/29 07:11:21;;;;;;;;;;;21.60;29.90;;;;;;483280;246;1249;-38
2022/03/29 07:13:21;;;;;;;;;;;21.50;29.80;;;;;;483468;246;2141;-38
2022/03/29 07:15:22;;;;;;;;;;;21.60;29.80;;;;;;483485;246;1228;-38
2022/03/29 07:17:23;;;;;;;;;;;21.50;29.90;;;;;;483690;246;2196;-38
2022/03/29 07:19:27;;;;;;;;;;;21.60;29.80;;;;;;483364;246;1198;-38
2022/03/29 07:21:26;;;;;;;;;;;21.60;29.80;;;;;;483078;246;2069;-38
2022/03/29 07:23:27;;;;;;;;;;;21.50;29.80;;;;;;483314;246;1060;-38
2022/03/29 07:25:32;;;;;;;;;;;21.50;29.80;;;;;;483251;246;1077;-38
2022/03/29 07:27:30;;;;;;;;;;;21.50;29.90;;;;;;483111;246;2353;-38
2022/03/29 07:29:32;;;;;;;;;;;21.60;29.90;;;;;;483423;246;2386;-38
2022/03/29 07:31:32;;;;;;;;;;;21.60;29.90;;;;;;483403;246;2328;-38
2022/03/29 07:33:34;;;;;;;;;;;21.50;29.90;;;;;;483695;246;946;-38
2022/03/29 07:35:35;;;;;;;;;;;21.50;29.80;;;;;;483490;246;1202;-38
2022/03/29 07:37:36;;;;;;;;;;;21.60;29.80;;;;;;484046;246;2187;-38
2022/03/29 07:39:38;;;;;;;;;;;21.60;29.90;;;;;;484168;246;944;-38
2022/03/29 07:41:39;;;;;;;;;;;21.60;29.90;;;;;;484066;246;2163;-38
2022/03/29 07:43:40;;;;;;;;;;;21.60;29.90;;;;;;483025;246;1736;-38
2022/03/29 07:45:42;;;;;;;;;;;21.50;29.90;;;;;;484026;246;1136;-38
2022/03/29 07:47:43;;;;;;;;;;;21.60;29.80;;;;;;484086;246;1134;-39
2022/03/29 07:49:44;;;;;;;;;;;21.60;29.80;;;;;;483634;246;857;-38
2022/03/29 07:51:45;;;;;;;;;;;21.60;29.80;;;;;;483809;246;1098;-38
2022/03/29 07:53:47;;;;;;;;;;;21.60;29.90;;;;;;483088;246;949;-38
2022/03/29 07:55:48;;;;;;;;;;;21.60;29.80;;;;;;484024;246;1156;-38
2022/03/29 07:57:49;;;;;;;;;;;21.60;29.80;;;;;;483956;246;2240;-38
2022/03/29 07:59:51;;;;;;;;;;;21.70;29.80;;;;;;483712;246;1181;-38
2022/03/29 08:01:52;;;;;;;;;;;21.60;29.80;;;;;;483978;246;1012;-38
2022/03/29 08:03:54;;;;;;;;;;;21.60;29.80;;;;;;483743;246;871;-38
2022/03/29 08:05:55;;;;;;;;;;;21.60;29.80;;;;;;484050;246;2139;-38
2022/03/29 08:07:57;;;;;;;;;;;21.60;29.80;;;;;;484108;246;1098;-38
2022/03/29 08:09:58;;;;;;;;;;;21.60;29.80;;;;;;484168;246;855;-38
2022/03/29 08:12:00;;;;;;;;;;;21.60;29.90;;;;;;483693;246;1162;-38
2022/03/29 08:14:01;;;;;;;;;;;21.60;29.90;;;;;;483980;246;1077;-39
2022/03/29 08:16:02;;;;;;;;;;;21.60;29.80;;;;;;484075;246;1338;-38
2022/03/29 08:18:04;;;;;;;;;;;21.60;29.80;;;;;;483648;246;2205;-38
2022/03/29 08:20:05;;;;;;;;;;;21.60;29.80;;;;;;484067;246;1128;-38
2022/03/29 08:22:06;;;;;;;;;;;21.60;29.90;;;;;;483604;246;1233;-38
2022/03/29 08:24:08;;;;;;;;;;;21.60;29.90;;;;;;484219;246;967;-38
2022/03/29 08:26:09;;;;;;;;;;;21.60;29.90;;;;;;483605;246;1456;-38
2022/03/29 08:28:10;;;;;;;;;;;21.60;29.80;;;;;;484159;246;1064;-38
2022/03/29 08:30:12;;;;;;;;;;;21.60;29.80;;;;;;483697;246;1175;-38
2022/03/29 08:32:13;;;;;;;;;;;21.60;29.80;;;;;;483661;246;1334;-38
2022/03/29 08:34:14;;;;;;;;;;;21.60;29.80;;;;;;483649;246;1018;-38
2022/03/29 08:36:16;;;;;;;;;;;21.60;29.80;;;;;;483576;246;1326;-38
2022/03/29 08:38:17;;;;;;;;;;;21.60;29.80;;;;;;482891;246;2196;-38
2022/03/29 08:40:21;;;;;;;;;;;21.60;29.80;;;;;;484116;246;1106;-38
2022/03/29 08:42:20;;;;;;;;;;;21.60;29.80;;;;;;483581;246;2197;-38
2022/03/29 08:44:21;;;;;;;;;;;21.60;29.80;;;;;;483727;246;1187;-38
2022/03/29 08:46:23;;;;;;;;;;;21.60;29.80;;;;;;483298;246;1167;-39
2022/03/29 08:48:24;;;;;;;;;;;21.60;29.80;;;;;;483224;246;1220;-38
2022/03/29 08:50:25;;;;;;;;;;;21.60;29.80;;;;;;483284;246;1117;-38
2022/03/29 08:52:27;;;;;;;;;;;21.60;29.80;;;;;;483212;246;1094;-38
2022/03/29 08:54:28;;;;;;;;;;;21.60;29.80;;;;;;483291;246;2284;-38
2022/03/29 08:56:29;;;;;;;;;;;21.60;29.80;;;;;;483401;246;1249;-38
2022/03/29 08:58:30;;;;;;;;;;;21.60;29.80;;;;;;483308;246;2176;-38
2022/03/29 09:00:32;;;;;;;;;;;21.60;29.80;;;;;;482866;246;1338;-38
2022/03/29 09:02:33;;;;;;;;;;;21.60;29.80;;;;;;483286;246;1315;-38
2022/03/29 09:04:34;;;;;;;;;;;21.60;29.80;;;;;;483572;246;1077;-38
2022/03/29 09:06:36;;;;;;;;;;;21.60;29.80;;;;;;483473;246;1251;-38
2022/03/29 09:08:37;;;;;;;;;;;21.60;29.80;;;;;;483407;246;1242;-38
2022/03/29 09:10:38;;;;;;;;;;;21.60;29.80;;;;;;483421;246;1203;-38
2022/03/29 09:12:40;;;;;;;;;;;21.60;29.80;;;;;;483477;246;1146;-38
2022/03/29 09:14:41;;;;;;;;;;;21.60;29.80;;;;;;483347;246;1201;-38
2022/03/29 09:16:42;;;;;;;;;;;21.60;29.70;;;;;;483431;246;1349;-38
2022/03/29 09:18:44;;;;;;;;;;;21.60;29.70;;;;;;483371;246;2124;-38
2022/03/29 09:20:45;;;;;;;;;;;21.60;29.70;;;;;;483195;246;1367;-38
2022/03/29 09:22:46;;;;;;;;;;;21.60;29.70;;;;;;483237;246;1174;-38
2022/03/29 09:24:48;;;;;;;;;;;21.60;29.70;;;;;;483318;246;1085;-38
2022/03/29 09:26:49;;;;;;;;;;;21.60;29.70;;;;;;483390;246;1224;-38
2022/03/29 09:28:50;;;;;;;;;;;21.60;29.70;;;;;;484146;246;829;-38
2022/03/29 09:30:52;;;;;;;;;;;21.70;29.70;;;;;;483221;246;1333;-38
2022/03/29 09:32:53;;;;;;;;;;;21.60;29.70;;;;;;483364;246;1218;-38
2022/03/29 09:34:54;;;;;;;;;;;21.60;29.70;;;;;;483598;246;1291;-39
2022/03/29 09:36:55;;;;;;;;;;;21.60;29.70;;;;;;483845;246;1217;-38
2022/03/29 09:38:59;;;;;;;;;;;21.70;29.70;;;;;;483767;246;2207;-38
2022/03/29 09:40:58;;;;;;;;;;;21.60;29.70;;;;;;483562;246;1557;-38
2022/03/29 09:42:59;;;;;;;;;;;21.60;29.70;;;;;;484254;246;1028;-38
2022/03/29 09:45:01;;;;;;;;;;;21.60;29.70;;;;;;484135;246;1267;-38
2022/03/29 09:47:04;;;;;;;;;;;21.60;29.70;;;;;;484172;246;1095;-38
2022/03/29 09:49:04;;;;;;;;;;;21.60;29.70;;;;;;483761;246;2093;-38
2022/03/29 09:51:05;;;;;;;;;;;21.70;29.70;;;;;;483535;246;1158;-38
2022/03/29 09:53:06;;;;;;;;;;;21.70;29.70;;;;;;483309;246;1240;-38
2022/03/29 09:55:09;;;;;;;;;;;21.60;29.70;;;;;;483211;246;1206;-38
2022/03/29 09:57:10;;;;;;;;;;;21.60;29.70;;;;;;482910;246;2188;-38
2022/03/29 09:59:11;;;;;;;;;;;21.60;29.70;;;;;;483197;246;2176;-38
2022/03/29 10:01:12;;;;;;;;;;;21.60;29.70;;;;;;483289;246;1303;-38
2022/03/29 10:03:16;;;;;;;;;;;21.60;29.70;;;;;;483400;246;1211;-38
2022/03/29 10:05:15;;;;;;;;;;;21.70;29.60;;;;;;483204;246;2181;-38
2022/03/29 10:07:16;;;;;;;;;;;21.60;29.60;;;;;;483452;246;1145;-38
2022/03/29 10:09:27;;;;;;;;;;;21.60;29.70;;;;;;483520;246;1161;-38
2022/03/29 10:11:28;;;;;;;;;;;21.70;29.70;;;;;;483273;246;1250;-38
2022/03/29 10:13:30;;;;;;;;;;;21.60;29.70;;;;;;483292;246;1275;-38
2022/03/29 10:15:31;;;;;;;;;;;21.60;29.70;;;;;;483496;246;2294;-38
2022/03/29 10:17:32;;;;;;;;;;;21.60;29.70;;;;;;483552;246;1216;-39
2022/03/29 10:19:34;;;;;;;;;;;21.60;29.70;;;;;;483466;246;2176;-38
2022/03/29 10:21:35;;;;;;;;;;;21.60;29.70;;;;;;483184;246;1103;-38
2022/03/29 10:23:36;;;;;;;;;;;21.60;29.70;;;;;;483433;246;1131;-38
2022/03/29 10:25:38;;;;;;;;;;;21.60;29.70;;;;;;483483;246;1098;-38
2022/03/29 10:27:39;;;;;;;;;;;21.60;29.70;;;;;;483549;246;1202;-38
2022/03/29 10:29:41;;;;;;;;;;;21.60;29.60;;;;;;483499;246;1076;-38
2022/03/29 10:31:42;;;;;;;;;;;21.70;29.70;;;;;;483317;246;1156;-38
2022/03/29 10:33:43;;;;;;;;;;;21.70;29.70;;;;;;483350;246;1120;-38
2022/03/29 10:35:44;;;;;;;;;;;21.70;29.60;;;;;;483229;246;1337;-38
2022/03/29 10:37:46;;;;;;;;;;;21.70;29.60;;;;;;483197;246;1297;-38
2022/03/29 10:39:47;;;;;;;;;;;21.70;29.60;;;;;;483319;246;2121;-38
2022/03/29 10:41:48;;;;;;;;;;;21.70;29.60;;;;;;483546;246;1189;-38
2022/03/29 10:43:49;;;;;;;;;;;21.60;29.70;;;;;;484273;246;831;-38
2022/03/29 10:45:51;;;;;;;;;;;21.70;29.70;;;;;;483807;246;1165;-38
2022/03/29 10:47:52;;;;;;;;;;;21.70;29.70;;;;;;484196;246;1062;-38
2022/03/29 10:49:53;;;;;;;;;;;21.60;29.60;;;;;;483710;246;880;-38
2022/03/29 10:51:55;;;;;;;;;;;21.70;29.70;;;;;;484153;246;1226;-38
2022/03/29 10:53:56;;;;;;;;;;;21.70;29.70;;;;;;483595;246;1095;-38
2022/03/29 10:55:57;;;;;;;;;;;21.70;29.70;;;;;;483353;246;1059;-38
2022/03/29 10:57:59;;;;;;;;;;;21.70;29.60;;;;;;483323;246;2176;-38
2022/03/29 11:00:00;;;;;;;;;;;21.70;29.60;;;;;;483311;246;1069;-38
2022/03/29 11:02:01;;;;;;;;;;;21.70;29.70;;;;;;483302;246;1214;-38
2022/03/29 11:04:03;;;;;;;;;;;21.70;29.60;;;;;;483277;246;1047;-38
2022/03/29 11:06:04;;;;;;;;;;;21.60;29.60;;;;;;483312;246;1097;-38
2022/03/29 11:08:05;;;;;;;;;;;21.70;29.70;;;;;;483342;246;1249;-38
2022/03/29 11:10:07;;;;;;;;;;;21.70;29.70;;;;;;483326;246;1041;-38
2022/03/29 11:12:08;;;;;;;;;;;21.70;29.70;;;;;;483249;246;1112;-38
2022/03/29 11:14:09;;;;;;;;;;;21.70;29.60;;;;;;483321;246;1173;-38
2022/03/29 11:16:11;;;;;;;;;;;21.70;29.70;;;;;;483675;246;1132;-39
2022/03/29 11:18:12;;;;;;;;;;;21.60;29.60;;;;;;483394;246;2192;-38
2022/03/29 11:20:13;;;;;;;;;;;21.60;29.60;;;;;;483382;246;1117;-38
2022/03/29 11:22:15;;;;;;;;;;;21.60;29.60;;;;;;483306;246;1250;-38
2022/03/29 11:24:16;;;;;;;;;;;21.60;29.70;;;;;;483325;246;1532;-39
2022/03/29 11:26:19;;;;;;;;;;;21.70;29.70;;;;;;483234;246;1263;-39
2022/03/29 11:28:19;;;;;;;;;;;21.60;29.60;;;;;;483191;246;2020;-39
2022/03/29 11:30:20;;;;;;;;;;;21.60;29.60;;;;;;483244;246;1136;-39
2022/03/29 11:32:21;;;;;;;;;;;21.60;29.70;;;;;;483274;246;1287;-39
2022/03/29 11:34:23;;;;;;;;;;;21.60;29.60;;;;;;483494;246;1171;-39
2022/03/29 11:36:24;;;;;;;;;;;21.70;29.60;;;;;;483265;246;1215;-39
2022/03/29 11:38:26;;;;;;;;;;;21.60;29.60;;;;;;483377;246;2113;-39
2022/03/29 11:40:27;;;;;;;;;;;21.60;29.60;;;;;;483514;246;1051;-39
2022/03/29 11:42:30;;;;;;;;;;;21.60;29.60;;;;;;483542;246;1174;-39
2022/03/29 11:44:31;;;;;;;;;;;21.60;29.60;;;;;;484138;246;841;-39
2022/03/29 11:46:32;;;;;;;;;;;21.60;29.60;;;;;;483888;241;1253;-39
2022/03/29 11:48:34;;;;;;;;;;;21.70;29.60;;;;;;483708;246;858;-39
2022/03/29 11:50:35;;;;;;;;;;;21.70;29.60;;;;;;484336;246;1242;-39
2022/03/29 11:52:38;;;;;;;;;;;21.70;29.60;;;;;;483801;246;1034;-39
2022/03/29 11:54:38;;;;;;;;;;;21.70;29.60;;;;;;483732;246;1908;-39
2022/03/29 11:56:39;;;;;;;;;;;21.60;29.60;;;;;;483679;246;1225;-39
2022/03/29 11:58:41;;;;;;;;;;;21.70;29.60;;;;;;484216;246;2195;-39
2022/03/29 12:00:42;;;;;;;;;;;21.70;29.60;;;;;;484111;246;824;-39
2022/03/29 12:02:43;;;;;;;;;;;21.70;29.60;;;;;;483740;246;1182;-39
2022/03/29 12:04:44;;;;;;;;;;;21.70;29.60;;;;;;483679;246;1046;-39